Time;durP1;ratioP1;P1;durP2;ratioP2;P2;SDS_P1;SDS_P2;PMS_P1;PMS_P2;Temp;Humidity;BMP_temperature;BMP_pressure;BME280_temperature;BME280_humidity;BME280_pressure;Samples;Min_cycle;Max_cycle;Signal;HPM_P1;HPM_P2
2021/07/25 00:00:37;;;;;;;15.02;9.55;;;21.80;82.40;;;;;;5052951;28;20067;-39
2021/07/25 00:03:02;;;;;;;16.83;10.50;;;21.80;82.80;;;;;;5052578;28;20049;-39
2021/07/25 00:05:28;;;;;;;12.98;8.90;;;21.80;83.40;;;;;;5052764;28;20059;-39
2021/07/25 00:07:53;;;;;;;14.82;10.25;;;21.70;83.50;;;;;;5052765;28;20029;-39
2021/07/25 00:10:19;;;;;;;14.15;9.07;;;21.70;83.70;;;;;;5052702;28;20036;-41
2021/07/25 00:12:44;;;;;;;14.02;9.25;;;21.70;84.10;;;;;;5051611;28;20067;-38
2021/07/25 00:15:10;;;;;;;16.90;9.77;;;21.70;84.20;;;;;;5052629;28;20029;-39
2021/07/25 00:17:36;;;;;;;12.75;10.15;;;21.70;84.50;;;;;;5052668;28;20032;-40
2021/07/25 00:20:02;;;;;;;14.18;9.85;;;21.60;84.50;;;;;;5052651;28;20074;-38
2021/07/25 00:22:27;;;;;;;13.68;9.27;;;21.60;84.70;;;;;;5052502;28;20147;-39
2021/07/25 00:25:07;;;;;;;13.40;9.75;;;21.60;84.90;;;;;;5052586;28;20100;-38
2021/07/25 00:27:33;;;;;;;15.70;10.02;;;21.50;85.30;;;;;;5051183;28;20028;-39
2021/07/25 00:29:58;;;;;;;13.00;8.93;;;21.50;86.20;;;;;;5052527;28;20021;-41
2021/07/25 00:32:24;;;;;;;11.30;7.95;;;21.40;86.20;;;;;;5052446;28;20502;-39
2021/07/25 00:34:49;;;;;;;16.50;9.57;;;21.30;87.30;;;;;;5052507;28;20026;-38
2021/07/25 00:37:15;;;;;;;14.60;9.52;;;21.20;87.40;;;;;;5052486;28;20031;-38
2021/07/25 00:39:40;;;;;;;13.23;8.82;;;21.20;88.40;;;;;;5054006;28;20033;-41
2021/07/25 00:42:06;;;;;;;10.15;8.82;;;21.10;89.20;;;;;;5055019;28;20102;-38
2021/07/25 00:44:31;;;;;;;14.10;9.27;;;20.90;90.00;;;;;;5056344;28;20100;-38
2021/07/25 00:46:59;;;;;;;13.75;9.32;;;20.90;90.40;;;;;;5056370;28;20025;-39
2021/07/25 00:49:26;;;;;;;10.73;8.60;;;20.80;90.80;;;;;;5056269;28;20487;-39
2021/07/25 00:51:52;;;;;;;15.77;9.75;;;20.70;91.90;;;;;;5056270;28;20021;-39
2021/07/25 00:54:19;;;;;;;14.13;9.82;;;20.60;92.30;;;;;;5056193;28;20464;-39
2021/07/25 00:56:45;;;;;;;13.02;9.88;;;20.50;92.50;;;;;;5055311;28;20025;-39
2021/07/25 00:59:11;;;;;;;14.70;9.77;;;20.40;93.10;;;;;;5055935;28;20021;-39
2021/07/25 01:01:37;;;;;;;12.50;9.85;;;20.30;93.50;;;;;;5056076;28;20392;-40
2021/07/25 01:04:09;;;;;;;12.30;9.07;;;20.30;94.10;;;;;;5055965;28;20032;-38
2021/07/25 01:06:53;;;;;;;13.25;10.32;;;20.20;94.30;;;;;;5055960;28;20464;-38
2021/07/25 01:09:42;;;;;;;12.65;9.02;;;20.10;95.50;;;;;;5055901;28;20033;-38
2021/07/25 01:12:16;;;;;;;12.75;10.05;;;20.10;96.10;;;;;;5054695;28;20483;-38
2021/07/25 01:14:43;;;;;;;13.43;10.35;;;20.00;96.40;;;;;;5055907;28;20430;-38
2021/07/25 01:17:27;;;;;;;12.82;9.80;;;19.90;96.70;;;;;;5055852;28;20029;-39
2021/07/25 01:19:53;;;;;;;15.30;9.38;;;19.80;99.10;;;;;;5055772;28;20070;-39
2021/07/25 01:22:19;;;;;;;12.07;8.70;;;19.70;98.20;;;;;;5055629;28;20103;-38
2021/07/25 01:24:46;;;;;;;12.77;9.65;;;19.60;98.60;;;;;;5055627;28;20104;-39
2021/07/25 01:27:20;;;;;;;14.10;9.68;;;19.60;99.60;;;;;;5054335;28;20480;-38
2021/07/25 01:29:47;;;;;;;13.75;10.20;;;19.60;99.90;;;;;;5055521;28;20070;-38
2021/07/25 01:32:14;;;;;;;13.70;10.23;;;19.50;99.90;;;;;;5055501;28;20028;-38
2021/07/25 01:34:41;;;;;;;15.77;9.80;;;19.50;99.90;;;;;;5055466;28;20025;-38
2021/07/25 01:37:07;;;;;;;11.18;9.02;;;19.50;99.90;;;;;;5054182;28;20070;-38
2021/07/25 01:39:33;;;;;;;14.90;10.38;;;19.50;99.90;;;;;;5055333;28;20032;-38
2021/07/25 01:41:58;;;;;;;15.55;9.73;;;19.50;99.90;;;;;;5053964;28;20032;-38
2021/07/25 01:44:24;;;;;;;15.88;10.95;;;19.50;99.90;;;;;;5055335;28;20025;-39
2021/07/25 01:46:49;;;;;;;14.95;10.82;;;19.60;99.90;;;;;;5055197;28;20475;-38
2021/07/25 01:49:14;;;;;;;13.57;10.32;;;19.60;99.90;;;;;;5055224;28;20039;-38
2021/07/25 01:51:40;;;;;;;13.45;9.90;;;19.60;99.90;;;;;;5054569;28;20025;-38
2021/07/25 01:54:06;;;;;;;13.38;9.73;;;19.60;99.90;;;;;;5055155;28;20096;-38
2021/07/25 01:56:31;;;;;;;13.52;10.70;;;19.50;99.90;;;;;;5054995;28;20104;-38
2021/07/25 01:58:58;;;;;;;12.57;10.10;;;19.50;99.90;;;;;;5053757;28;20025;-38
2021/07/25 02:01:24;;;;;;;14.70;10.10;;;19.50;99.90;;;;;;5054717;28;20373;-41
2021/07/25 02:03:50;;;;;;;15.05;10.75;;;19.40;99.90;;;;;;5054890;28;20075;-39
2021/07/25 02:06:15;;;;;;;17.17;10.57;;;19.40;99.90;;;;;;5054827;28;20066;-38
2021/07/25 02:08:41;;;;;;;12.60;9.77;;;19.30;99.90;;;;;;5054773;28;20032;-38
2021/07/25 02:11:08;;;;;;;15.18;10.82;;;19.30;99.90;;;;;;5054825;28;20024;-38
2021/07/25 02:13:34;;;;;;;14.60;10.13;;;19.20;99.90;;;;;;5053378;28;20025;-40
2021/07/25 02:16:00;;;;;;;14.77;11.48;;;19.10;99.90;;;;;;5054697;28;20192;-39
2021/07/25 02:18:25;;;;;;;13.13;10.25;;;19.10;99.90;;;;;;5054639;28;20381;-40
2021/07/25 02:20:51;;;;;;;13.52;9.65;;;19.00;99.90;;;;;;5054667;28;20383;-38
2021/07/25 02:23:17;;;;;;;15.13;9.95;;;19.00;99.90;;;;;;5054522;28;20056;-38
2021/07/25 02:25:42;;;;;;;12.40;9.57;;;18.90;99.90;;;;;;5054485;28;20060;-39
2021/07/25 02:28:08;;;;;;;15.75;10.45;;;18.80;99.90;;;;;;5053177;28;20024;-38
2021/07/25 02:30:34;;;;;;;14.68;9.80;;;18.80;99.90;;;;;;5054348;28;20029;-38
2021/07/25 02:33:00;;;;;;;13.48;10.13;;;18.70;99.90;;;;;;5054420;28;20070;-39
2021/07/25 02:35:25;;;;;;;10.90;9.07;;;18.70;99.90;;;;;;5054308;28;20099;-39
2021/07/25 02:37:51;;;;;;;15.45;10.55;;;18.70;99.90;;;;;;5054310;28;20029;-38
2021/07/25 02:40:16;;;;;;;14.23;10.07;;;18.70;99.90;;;;;;5054219;28;20112;-39
2021/07/25 02:42:43;;;;;;;16.77;11.40;;;18.70;99.90;;;;;;5052820;28;20040;-38
2021/07/25 02:45:09;;;;;;;14.18;10.00;;;18.70;99.90;;;;;;5054056;28;20448;-39
2021/07/25 02:47:34;;;;;;;12.55;10.23;;;18.60;99.90;;;;;;5054063;28;20452;-40
2021/07/25 02:50:00;;;;;;;15.40;10.52;;;18.60;99.90;;;;;;5054087;28;20056;-38
2021/07/25 02:52:25;;;;;;;15.73;10.85;;;18.60;99.90;;;;;;5053907;28;20035;-39
2021/07/25 02:54:51;;;;;;;16.13;11.50;;;18.60;99.90;;;;;;5053946;28;20037;-38
2021/07/25 02:57:16;;;;;;;19.40;11.05;;;18.60;99.90;;;;;;5052641;28;20037;-38
2021/07/25 02:59:42;;;;;;;19.60;10.25;;;18.60;99.90;;;;;;5053655;28;20458;-38
2021/07/25 03:02:07;;;;;;;15.70;10.98;;;18.50;99.90;;;;;;5053366;28;20049;-38
2021/07/25 03:04:33;;;;;;;12.70;9.98;;;18.50;99.90;;;;;;5053057;28;20025;-38
2021/07/25 03:06:58;;;;;;;14.85;10.50;;;18.50;99.90;;;;;;5053788;28;20021;-38
2021/07/25 03:09:24;;;;;;;15.10;9.88;;;18.50;99.90;;;;;;5053654;28;20025;-38
2021/07/25 03:11:49;;;;;;;16.27;10.48;;;18.50;99.90;;;;;;5052336;28;20033;-38
2021/07/25 03:14:15;;;;;;;12.18;9.73;;;18.40;99.90;;;;;;5053503;28;20029;-38
2021/07/25 03:16:40;;;;;;;18.70;11.27;;;18.40;99.90;;;;;;5053519;28;20479;-38
2021/07/25 03:19:06;;;;;;;15.05;10.82;;;18.40;99.90;;;;;;5053523;28;20086;-39
2021/07/25 03:21:31;;;;;;;13.55;10.82;;;18.40;99.90;;;;;;5053419;28;20067;-40
2021/07/25 03:23:57;;;;;;;14.45;10.95;;;18.40;99.90;;;;;;5053301;28;20382;-38
2021/07/25 03:26:22;;;;;;;15.98;11.45;;;18.40;99.90;;;;;;5053344;28;20029;-38
2021/07/25 03:28:48;;;;;;;16.45;11.60;;;18.40;99.90;;;;;;5051844;28;20142;-38
2021/07/25 03:31:14;;;;;;;19.42;11.60;;;18.50;99.90;;;;;;5053293;28;20040;-38
2021/07/25 03:33:39;;;;;;;14.95;10.80;;;18.50;99.90;;;;;;5053221;28;20025;-38
2021/07/25 03:36:05;;;;;;;15.40;10.00;;;18.50;99.90;;;;;;5053162;28;20036;-38
2021/07/25 03:38:30;;;;;;;17.88;12.45;;;18.40;99.90;;;;;;5053008;28;20353;-39
2021/07/25 03:41:01;;;;;;;14.60;10.80;;;18.40;99.90;;;;;;5053153;28;20067;-38
2021/07/25 03:43:27;;;;;;;16.52;10.90;;;18.40;99.90;;;;;;5051620;28;20040;-38
2021/07/25 03:45:53;;;;;;;13.38;10.85;;;18.40;99.90;;;;;;5053111;28;20467;-41
2021/07/25 03:48:19;;;;;;;11.98;9.85;;;18.40;99.90;;;;;;5053094;28;20371;-38
2021/07/25 03:50:45;;;;;;;15.27;11.10;;;18.40;99.90;;;;;;5052952;28;20067;-38
2021/07/25 03:53:10;;;;;;;14.65;10.25;;;18.40;99.90;;;;;;5052982;28;20033;-38
2021/07/25 03:55:36;;;;;;;14.88;11.75;;;18.40;99.90;;;;;;5052893;28;20028;-38
2021/07/25 03:58:07;;;;;;;15.20;11.45;;;18.40;99.90;;;;;;5051534;28;20033;-40
2021/07/25 04:00:32;;;;;;;18.15;12.35;;;18.40;99.90;;;;;;5052862;28;20037;-38
2021/07/25 04:02:58;;;;;;;17.70;11.70;;;18.40;99.90;;;;;;5052590;28;20055;-39
2021/07/25 04:05:24;;;;;;;17.38;11.10;;;18.40;99.90;;;;;;5052849;28;20481;-38
2021/07/25 04:07:50;;;;;;;15.82;11.70;;;18.40;99.90;;;;;;5052874;28;20056;-40
2021/07/25 04:10:15;;;;;;;17.30;11.75;;;18.50;99.90;;;;;;5052789;28;20456;-38
2021/07/25 04:12:41;;;;;;;14.20;11.27;;;18.60;99.90;;;;;;5051338;28;20056;-38
2021/07/25 04:15:07;;;;;;;16.85;12.23;;;18.60;99.90;;;;;;5052581;28;20509;-38
2021/07/25 04:17:34;;;;;;;17.33;12.45;;;18.70;99.90;;;;;;5052680;28;20094;-38
2021/07/25 04:20:00;;;;;;;15.95;12.10;;;18.70;99.90;;;;;;5052620;28;20202;-38
2021/07/25 04:22:26;;;;;;;16.65;11.50;;;18.80;99.90;;;;;;5052603;28;20032;-38
2021/07/25 04:24:51;;;;;;;16.23;10.60;;;18.90;99.90;;;;;;5052554;28;20033;-39
2021/07/25 04:27:17;;;;;;;15.00;10.80;;;18.90;99.90;;;;;;5051200;28;20096;-38
2021/07/25 04:29:43;;;;;;;16.45;11.25;;;18.90;99.90;;;;;;5052530;28;20035;-38
2021/07/25 04:32:09;;;;;;;14.05;10.68;;;19.00;99.90;;;;;;5052564;28;20035;-40
2021/07/25 04:34:35;;;;;;;15.00;11.27;;;19.10;99.90;;;;;;5052566;28;20021;-38
2021/07/25 04:37:02;;;;;;;12.48;9.57;;;19.10;99.90;;;;;;5052413;28;20575;-38
2021/07/25 04:39:27;;;;;;;19.60;10.98;;;19.30;99.90;;;;;;5052531;28;20044;-38
2021/07/25 04:41:56;;;;;;;11.95;9.68;;;19.50;99.90;;;;;;5050975;28;20412;-38
2021/07/25 04:44:28;;;;;;;13.50;10.85;;;19.80;99.90;;;;;;5052388;28;20091;-39
2021/07/25 04:46:57;;;;;;;14.80;11.43;;;20.20;99.90;;;;;;5052315;28;20027;-38
2021/07/25 04:49:30;;;;;;;13.20;10.98;;;20.60;99.90;;;;;;5052389;28;20380;-38
2021/07/25 04:51:56;;;;;;;12.80;10.30;;;20.90;99.90;;;;;;5052326;28;20029;-38
2021/07/25 04:54:22;;;;;;;12.88;10.93;;;21.10;99.90;;;;;;5052231;28;20025;-41
2021/07/25 04:57:00;;;;;;;15.45;11.70;;;21.40;99.90;;;;;;5050948;28;20029;-39
2021/07/25 04:59:29;;;;;;;15.77;11.18;;;21.70;99.90;;;;;;5052359;28;20033;-38
2021/07/25 05:02:03;;;;;;;16.27;11.82;;;22.00;99.90;;;;;;5052031;28;20179;-38
2021/07/25 05:04:29;;;;;;;12.27;9.75;;;22.00;99.90;;;;;;5052185;28;20411;-39
2021/07/25 05:06:55;;;;;;;14.57;10.90;;;22.40;99.90;;;;;;5052048;28;20100;-39
2021/07/25 05:09:21;;;;;;;16.77;11.40;;;22.70;99.90;;;;;;5052179;28;20044;-38
2021/07/25 05:11:52;;;;;;;15.35;11.23;;;22.50;99.90;;;;;;5050878;28;20037;-39
2021/07/25 05:14:46;;;;;;;17.45;11.38;;;22.10;99.90;;;;;;5052229;28;20025;-38
2021/07/25 05:17:35;;;;;;;16.00;11.95;;;21.60;99.90;;;;;;5052150;28;20025;-39
2021/07/25 05:20:04;;;;;;;15.43;11.20;;;21.30;99.90;;;;;;5052116;28;20365;-38
2021/07/25 05:22:56;;;;;;;14.05;10.40;;;21.10;99.90;;;;;;5052014;28;20037;-39
2021/07/25 05:25:23;;;;;;;13.07;10.55;;;20.90;99.90;;;;;;5052169;28;20028;-38
2021/07/25 05:27:52;;;;;;;14.90;12.07;;;20.70;99.90;;;;;;5053717;28;20380;-39
2021/07/25 05:30:20;;;;;;;14.38;10.77;;;20.70;99.90;;;;;;5055649;28;20021;-38
2021/07/25 05:32:45;;;;;;;15.02;10.85;;;20.80;99.90;;;;;;5055505;28;20029;-38
2021/07/25 05:35:12;;;;;;;13.73;11.65;;;20.90;99.90;;;;;;5055584;28;20044;-38
2021/07/25 05:37:37;;;;;;;15.02;11.88;;;20.90;99.90;;;;;;5055544;28;20464;-38
2021/07/25 05:40:05;;;;;;;14.35;10.40;;;21.00;99.90;;;;;;5055440;28;20032;-39
2021/07/25 05:42:30;;;;;;;13.77;10.45;;;21.20;99.90;;;;;;5053914;28;20086;-39
2021/07/25 05:44:56;;;;;;;15.82;11.65;;;21.70;99.90;;;;;;5055278;28;20029;-40
2021/07/25 05:47:21;;;;;;;12.60;10.38;;;22.40;99.90;;;;;;5055272;28;20360;-41
2021/07/25 05:49:47;;;;;;;13.55;10.93;;;22.90;99.90;;;;;;5055242;28;20498;-40
2021/07/25 05:52:12;;;;;;;17.85;11.63;;;24.10;99.80;;;;;;5055242;28;20029;-39
2021/07/25 05:54:38;;;;;;;15.70;10.80;;;25.20;96.00;;;;;;5055139;28;20079;-39
2021/07/25 05:57:03;;;;;;;11.85;10.05;;;26.20;90.90;;;;;;5053665;28;20025;-39
2021/07/25 05:59:29;;;;;;;11.98;9.65;;;27.10;89.40;;;;;;5055089;28;20061;-39
2021/07/25 06:01:54;;;;;;;13.15;11.40;;;27.80;84.40;;;;;;5054844;28;20407;-39
2021/07/25 06:04:20;;;;;;;13.50;11.10;;;27.50;78.30;;;;;;5054864;28;20029;-40
2021/07/25 06:06:46;;;;;;;11.32;10.10;;;28.00;75.80;;;;;;5054836;28;20029;-40
2021/07/25 06:09:11;;;;;;;12.80;10.60;;;28.70;74.50;;;;;;5054908;28;20103;-40
2021/07/25 06:11:38;;;;;;;14.77;11.15;;;29.20;69.20;;;;;;5053822;28;20036;-42
2021/07/25 06:14:04;;;;;;;15.98;11.60;;;29.60;67.60;;;;;;5054668;28;20021;-43
2021/07/25 06:16:30;;;;;;;13.43;10.75;;;29.90;63.70;;;;;;5054785;28;20464;-41
2021/07/25 06:18:56;;;;;;;12.32;9.98;;;29.90;61.90;;;;;;5054635;28;20036;-41
2021/07/25 06:21:23;;;;;;;11.88;9.98;;;30.20;60.60;;;;;;5054645;28;20521;-44
2021/07/25 06:23:50;;;;;;;14.05;10.95;;;30.20;61.00;;;;;;5054490;28;20484;-41
2021/07/25 06:26:16;;;;;;;15.15;11.60;;;30.30;59.20;;;;;;5054429;28;20021;-43
2021/07/25 06:28:42;;;;;;;12.23;10.70;;;30.00;56.70;;;;;;5053179;28;20017;-43
2021/07/25 06:31:07;;;;;;;13.40;10.32;;;30.10;58.20;;;;;;5054428;28;20032;-43
2021/07/25 06:33:33;;;;;;;13.80;11.68;;;30.60;56.40;;;;;;5054371;28;20476;-44
2021/07/25 06:35:58;;;;;;;13.10;9.60;;;30.10;55.50;;;;;;5054373;28;20531;-43
2021/07/25 06:38:24;;;;;;;13.25;10.85;;;29.50;57.50;;;;;;5054380;28;20083;-43
2021/07/25 06:40:53;;;;;;;12.70;10.95;;;28.70;58.80;;;;;;5054152;28;20534;-47
2021/07/25 06:43:19;;;;;;;11.15;10.05;;;28.70;59.80;;;;;;5052903;28;20033;-43
2021/07/25 06:45:45;;;;;;;13.68;10.32;;;28.90;59.70;;;;;;5054186;28;20021;-44
2021/07/25 06:48:22;;;;;;;11.55;10.32;;;29.20;58.80;;;;;;5054115;28;20025;-42
2021/07/25 06:50:49;;;;;;;13.95;9.75;;;29.20;57.30;;;;;;5054111;28;20025;-47
2021/07/25 06:53:16;;;;;;;12.88;10.60;;;29.50;57.30;;;;;;5053966;28;20465;-39
2021/07/25 06:55:41;;;;;;;11.05;9.95;;;29.80;57.70;;;;;;5053982;28;20033;-39
2021/07/25 06:58:07;;;;;;;13.00;9.73;;;30.60;56.00;;;;;;5052634;28;20036;-43
2021/07/25 07:00:34;;;;;;;12.88;9.63;;;30.40;55.10;;;;;;5053877;28;20029;-43
2021/07/25 07:02:59;;;;;;;11.45;9.40;;;29.80;55.10;;;;;;5053593;28;20053;-42
2021/07/25 07:05:30;;;;;;;13.52;10.10;;;29.50;57.50;;;;;;5053824;28;20025;-39
2021/07/25 07:07:58;;;;;;;12.32;10.68;;;28.80;58.00;;;;;;5053631;28;20024;-39
2021/07/25 07:10:29;;;;;;;17.00;12.10;;;28.30;59.80;;;;;;5053742;28;20040;-41
2021/07/25 07:12:57;;;;;;;13.10;10.50;;;27.70;62.00;;;;;;5052311;28;20071;-44
2021/07/25 07:15:24;;;;;;;13.90;11.50;;;27.50;63.60;;;;;;5053674;28;20021;-42
2021/07/25 07:17:51;;;;;;;13.55;11.25;;;27.10;65.00;;;;;;5053591;28;20028;-43
2021/07/25 07:20:17;;;;;;;12.07;9.98;;;27.00;66.10;;;;;;5053448;28;20029;-44
2021/07/25 07:22:49;;;;;;;15.43;11.55;;;27.20;66.40;;;;;;5053367;28;20519;-41
2021/07/25 07:25:15;;;;;;;11.80;9.93;;;27.50;64.90;;;;;;5053418;28;20048;-39
2021/07/25 07:27:40;;;;;;;14.52;10.98;;;27.90;64.40;;;;;;5052167;28;20025;-40
2021/07/25 07:30:06;;;;;;;13.98;10.75;;;28.30;62.90;;;;;;5053378;28;20032;-41
2021/07/25 07:32:32;;;;;;;11.88;10.52;;;28.50;61.90;;;;;;5053571;28;20032;-41
2021/07/25 07:34:57;;;;;;;16.02;11.32;;;28.40;61.70;;;;;;5053101;28;20036;-40
2021/07/25 07:37:23;;;;;;;13.38;11.52;;;28.40;61.50;;;;;;5053309;28;20036;-39
2021/07/25 07:39:48;;;;;;;14.02;9.98;;;28.80;60.10;;;;;;5053192;28;20028;-40
2021/07/25 07:42:14;;;;;;;11.68;10.13;;;29.20;59.60;;;;;;5051732;28;20100;-41
2021/07/25 07:44:40;;;;;;;12.57;10.00;;;29.70;58.40;;;;;;5053162;28;20037;-41
2021/07/25 07:47:06;;;;;;;11.68;9.82;;;30.40;57.20;;;;;;5053071;28;20020;-39
2021/07/25 07:49:32;;;;;;;12.95;10.38;;;30.90;55.30;;;;;;5052570;28;20384;-39
2021/07/25 07:51:57;;;;;;;15.23;11.57;;;30.70;54.20;;;;;;5052906;28;20411;-39
2021/07/25 07:54:23;;;;;;;14.13;10.43;;;30.30;53.50;;;;;;5052996;28;20024;-39
2021/07/25 07:56:49;;;;;;;11.40;10.20;;;31.20;52.80;;;;;;5051657;28;20029;-44
2021/07/25 07:59:14;;;;;;;11.95;10.75;;;31.70;50.60;;;;;;5052910;28;20029;-42
2021/07/25 08:01:40;;;;;;;13.20;10.70;;;32.40;48.70;;;;;;5052688;28;20175;-41
2021/07/25 08:04:06;;;;;;;11.63;10.40;;;32.60;46.90;;;;;;5052662;28;20468;-39
2021/07/25 08:06:31;;;;;;;13.70;11.35;;;32.60;46.10;;;;;;5052811;28;20020;-40
2021/07/25 08:08:57;;;;;;;15.10;10.55;;;31.70;46.90;;;;;;5052847;28;20099;-40
2021/07/25 08:11:22;;;;;;;16.15;10.57;;;30.70;49.30;;;;;;5052741;28;20098;-40
2021/07/25 08:13:48;;;;;;;11.13;9.65;;;30.00;51.10;;;;;;5051504;28;20040;-39
2021/07/25 08:16:14;;;;;;;12.20;10.93;;;29.70;53.10;;;;;;5052725;28;20379;-41
2021/07/25 08:18:39;;;;;;;17.35;11.02;;;29.70;53.40;;;;;;5052715;28;20496;-42
2021/07/25 08:21:06;;;;;;;11.18;10.07;;;30.80;50.80;;;;;;5052624;28;20033;-39
2021/07/25 08:23:32;;;;;;;11.13;9.82;;;31.50;49.40;;;;;;5052597;28;20380;-42
2021/07/25 08:25:58;;;;;;;10.40;9.38;;;31.70;47.80;;;;;;5052656;28;20036;-40
2021/07/25 08:28:24;;;;;;;12.50;10.70;;;31.80;47.90;;;;;;5051312;28;20372;-40
2021/07/25 08:30:49;;;;;;;12.27;10.93;;;32.20;46.70;;;;;;5052613;28;20029;-42
2021/07/25 08:33:15;;;;;;;11.23;10.05;;;32.20;45.60;;;;;;5052558;28;20029;-40
2021/07/25 08:35:40;;;;;;;11.18;9.82;;;31.60;46.90;;;;;;5052498;28;20476;-46
2021/07/25 08:38:06;;;;;;;10.13;9.05;;;31.10;48.30;;;;;;5052461;28;20029;-42
2021/07/25 08:40:33;;;;;;;11.55;9.38;;;30.70;49.30;;;;;;5052524;28;20037;-45
2021/07/25 08:43:07;;;;;;;11.50;10.27;;;30.50;50.40;;;;;;5051118;28;20036;-47
2021/07/25 08:45:35;;;;;;;11.00;9.07;;;30.60;50.70;;;;;;5052492;28;20036;-39
2021/07/25 08:48:22;;;;;;;12.48;10.85;;;31.10;50.20;;;;;;5052290;28;20029;-42
2021/07/25 08:51:04;;;;;;;12.18;9.88;;;32.60;47.40;;;;;;5052345;28;20023;-40
2021/07/25 08:53:34;;;;;;;11.07;9.95;;;33.90;43.10;;;;;;5052413;28;20087;-40
2021/07/25 08:56:01;;;;;;;12.15;10.02;;;34.60;40.60;;;;;;5052295;28;20039;-41
2021/07/25 08:58:29;;;;;;;16.23;10.05;;;34.70;39.30;;;;;;5051207;28;20033;-41
2021/07/25 09:00:55;;;;;;;13.50;11.32;;;34.30;39.60;;;;;;5052426;28;20100;-43
2021/07/25 09:03:22;;;;;;;10.77;9.48;;;34.70;38.50;;;;;;5055948;28;20051;-40
2021/07/25 09:05:48;;;;;;;11.05;9.68;;;35.70;38.00;;;;;;5056194;28;20375;-40
2021/07/25 09:08:13;;;;;;;12.93;9.50;;;36.50;36.50;;;;;;5056064;28;20096;-40
2021/07/25 09:10:40;;;;;;;13.10;9.77;;;36.60;34.30;;;;;;5055975;28;20116;-42
2021/07/25 09:13:05;;;;;;;13.65;9.82;;;36.70;34.50;;;;;;5054532;28;20369;-43
2021/07/25 09:15:34;;;;;;;12.73;11.25;;;36.70;33.20;;;;;;5055886;28;20037;-40
2021/07/25 09:18:01;;;;;;;16.23;10.73;;;36.50;32.50;;;;;;5055833;28;20217;-42
2021/07/25 09:20:40;;;;;;;9.55;8.65;;;36.20;31.90;;;;;;5055968;28;20052;-40
2021/07/25 09:23:17;;;;;;;12.27;9.90;;;36.70;32.30;;;;;;5055661;28;20033;-41
2021/07/25 09:25:46;;;;;;;10.35;9.35;;;36.80;30.10;;;;;;5055607;28;20021;-40
2021/07/25 09:28:20;;;;;;;11.23;9.98;;;37.10;31.50;;;;;;5054352;28;20041;-40
2021/07/25 09:30:45;;;;;;;12.32;9.30;;;36.70;31.40;;;;;;5055648;28;20035;-41
2021/07/25 09:33:22;;;;;;;10.32;8.90;;;36.40;31.50;;;;;;5055512;28;20033;-42
2021/07/25 09:35:48;;;;;;;11.30;10.20;;;36.50;32.20;;;;;;5055534;28;20143;-40
2021/07/25 09:38:17;;;;;;;13.75;9.70;;;36.00;31.40;;;;;;5055336;28;20035;-42
2021/07/25 09:40:43;;;;;;;12.75;10.00;;;35.70;32.20;;;;;;5055507;28;20021;-39
2021/07/25 09:43:17;;;;;;;13.98;10.80;;;35.90;32.30;;;;;;5053916;28;20029;-40
2021/07/25 09:45:54;;;;;;;12.27;9.98;;;35.30;33.10;;;;;;5055648;28;20021;-40
2021/07/25 09:48:23;;;;;;;12.88;11.02;;;35.00;34.00;;;;;;5055276;28;20047;-42
2021/07/25 09:50:50;;;;;;;12.02;10.32;;;35.40;33.40;;;;;;5055200;28;20028;-39
2021/07/25 09:53:17;;;;;;;15.90;11.65;;;35.40;33.30;;;;;;5053971;28;20033;-41
2021/07/25 09:55:43;;;;;;;14.00;9.88;;;35.30;33.20;;;;;;5055193;28;20032;-42
2021/07/25 09:58:09;;;;;;;11.50;10.30;;;35.20;33.70;;;;;;5053798;28;20025;-40
2021/07/25 10:00:38;;;;;;;11.77;10.57;;;34.70;34.40;;;;;;5055063;28;20025;-42
2021/07/25 10:03:22;;;;;;;14.38;10.32;;;34.70;34.60;;;;;;5054736;28;20052;-41
2021/07/25 10:05:48;;;;;;;12.70;11.00;;;34.50;33.80;;;;;;5054993;28;20384;-41
2021/07/25 10:08:16;;;;;;;12.60;11.02;;;33.70;35.40;;;;;;5054861;28;20055;-40
2021/07/25 10:10:43;;;;;;;12.18;10.90;;;33.10;36.20;;;;;;5054854;28;20028;-42
2021/07/25 10:13:09;;;;;;;12.10;10.88;;;32.50;37.80;;;;;;5053149;28;20028;-41
2021/07/25 10:15:36;;;;;;;17.75;10.98;;;31.90;39.70;;;;;;5054694;28;20388;-42
2021/07/25 10:18:05;;;;;;;13.43;10.38;;;31.40;41.70;;;;;;5054960;28;20407;-40
2021/07/25 10:20:32;;;;;;;12.63;11.30;;;31.00;43.70;;;;;;5054753;28;20092;-42
2021/07/25 10:23:01;;;;;;;12.27;10.98;;;30.80;43.70;;;;;;5054579;28;20028;-42
2021/07/25 10:25:28;;;;;;;12.70;11.38;;;30.50;44.60;;;;;;5054597;28;20021;-45
2021/07/25 10:27:57;;;;;;;12.32;10.45;;;30.30;45.90;;;;;;5053201;28;20029;-43
2021/07/25 10:30:23;;;;;;;11.88;10.15;;;30.00;47.30;;;;;;5054309;28;20070;-41
2021/07/25 10:32:51;;;;;;;12.40;10.60;;;29.90;47.60;;;;;;5054439;28;20036;-40
2021/07/25 10:35:18;;;;;;;14.55;10.95;;;29.70;48.50;;;;;;5054262;28;20083;-41
2021/07/25 10:37:46;;;;;;;14.75;11.18;;;29.80;48.70;;;;;;5054439;28;20490;-45
2021/07/25 10:40:13;;;;;;;11.85;10.57;;;29.80;49.30;;;;;;5054253;28;20245;-42
2021/07/25 10:42:49;;;;;;;13.65;12.07;;;29.70;49.50;;;;;;5052863;28;20025;-41
2021/07/25 10:45:15;;;;;;;14.90;11.80;;;29.70;49.80;;;;;;5054089;28;20057;-41
2021/07/25 10:47:43;;;;;;;12.00;10.80;;;29.50;49.40;;;;;;5054171;28;20060;-44
2021/07/25 10:50:16;;;;;;;16.08;10.98;;;29.60;50.30;;;;;;5054126;28;20056;-41
2021/07/25 10:52:52;;;;;;;13.23;10.70;;;29.80;51.70;;;;;;5054056;28;20035;-40
2021/07/25 10:55:41;;;;;;;16.10;11.90;;;29.90;51.00;;;;;;5053793;28;20100;-40
2021/07/25 10:58:08;;;;;;;16.58;13.25;;;29.80;50.30;;;;;;5052654;28;20033;-40
2021/07/25 11:00:51;;;;;;;14.68;11.10;;;29.80;50.90;;;;;;5053893;28;20021;-40
2021/07/25 11:03:25;;;;;;;13.05;10.85;;;29.60;50.60;;;;;;5053519;28;20491;-41
2021/07/25 11:06:15;;;;;;;15.57;12.07;;;29.50;53.00;;;;;;5053695;28;20096;-42
2021/07/25 11:08:46;;;;;;;13.10;10.32;;;29.40;51.30;;;;;;5053680;28;20506;-40
2021/07/25 11:11:34;;;;;;;12.90;11.48;;;29.40;52.30;;;;;;5053715;28;20415;-42
2021/07/25 11:14:02;;;;;;;13.88;11.10;;;29.60;53.20;;;;;;5053672;28;20104;-42
2021/07/25 11:16:28;;;;;;;13.45;11.48;;;29.50;52.90;;;;;;5053641;28;20032;-41
2021/07/25 11:18:54;;;;;;;13.05;10.95;;;29.50;52.80;;;;;;5053630;28;20408;-41
2021/07/25 11:21:32;;;;;;;14.85;12.40;;;29.50;53.20;;;;;;5053516;28;20025;-43
2021/07/25 11:23:58;;;;;;;15.85;11.73;;;29.50;54.80;;;;;;5052728;28;20321;-44
2021/07/25 11:26:33;;;;;;;18.23;12.63;;;29.60;52.20;;;;;;5053538;28;20029;-43
2021/07/25 11:29:01;;;;;;;14.60;11.00;;;29.50;51.90;;;;;;5053451;28;20274;-40
2021/07/25 11:31:41;;;;;;;16.13;11.65;;;29.60;51.90;;;;;;5053351;28;20035;-41
2021/07/25 11:34:08;;;;;;;13.27;10.80;;;29.70;53.20;;;;;;5053337;28;20032;-41
2021/07/25 11:36:34;;;;;;;13.25;10.40;;;29.70;52.50;;;;;;5053232;28;20120;-43
2021/07/25 11:39:01;;;;;;;12.25;11.05;;;29.70;53.00;;;;;;5053148;28;20057;-42
2021/07/25 11:41:29;;;;;;;13.23;11.82;;;29.90;53.00;;;;;;5052424;28;20025;-43
2021/07/25 11:44:00;;;;;;;11.68;10.13;;;30.10;50.10;;;;;;5053085;28;20364;-44
2021/07/25 11:46:37;;;;;;;17.67;12.02;;;30.10;49.70;;;;;;5053016;28;20014;-42
2021/07/25 11:49:11;;;;;;;13.35;11.23;;;30.30;49.00;;;;;;5053040;28;20035;-42
2021/07/25 11:51:41;;;;;;;15.10;11.80;;;30.40;49.30;;;;;;5052871;28;20021;-43
2021/07/25 11:54:08;;;;;;;12.48;11.13;;;30.30;49.90;;;;;;5052875;28;20495;-41
2021/07/25 11:56:33;;;;;;;13.98;11.98;;;30.30;49.60;;;;;;5051717;28;20035;-44
2021/07/25 11:59:04;;;;;;;11.88;9.88;;;30.20;48.30;;;;;;5052894;28;20029;-41
2021/07/25 12:01:30;;;;;;;13.35;11.20;;;30.30;48.10;;;;;;5052650;28;20320;-42
2021/07/25 12:03:56;;;;;;;11.95;10.73;;;30.30;47.90;;;;;;5052787;28;20052;-44
2021/07/25 12:06:22;;;;;;;15.60;13.02;;;30.40;48.50;;;;;;5052638;28;20048;-41
2021/07/25 12:09:07;;;;;;;14.80;12.82;;;30.40;48.20;;;;;;5052742;28;20188;-41
2021/07/25 12:11:34;;;;;;;12.70;11.40;;;30.40;48.60;;;;;;5051338;28;20028;-40
2021/07/25 12:14:00;;;;;;;13.15;10.05;;;30.30;47.90;;;;;;5052770;28;20056;-43
2021/07/25 12:16:26;;;;;;;11.60;10.07;;;30.20;48.10;;;;;;5052711;28;20068;-41
2021/07/25 12:18:51;;;;;;;11.32;9.57;;;30.10;49.20;;;;;;5052550;28;20223;-42
2021/07/25 12:21:31;;;;;;;12.43;10.07;;;30.10;50.10;;;;;;5052698;28;20036;-41
2021/07/25 12:24:00;;;;;;;10.82;9.73;;;30.00;50.00;;;;;;5052691;28;20025;-41
2021/07/25 12:26:42;;;;;;;12.70;10.57;;;30.00;50.00;;;;;;5051659;28;20024;-44
2021/07/25 12:29:39;;;;;;;10.95;9.57;;;30.20;50.20;;;;;;5052433;28;20025;-41
2021/07/25 12:32:26;;;;;;;12.38;9.88;;;30.50;49.70;;;;;;5052584;28;20031;-40
2021/07/25 12:35:09;;;;;;;16.90;11.80;;;30.50;48.20;;;;;;5052748;28;20032;-41